createdAt,value
2022-10-11T00:00:24.946Z,95
2022-10-11T00:01:35.471Z,95
2022-10-11T00:02:34.047Z,95
2022-10-11T00:03:27.298Z,95
2022-10-11T00:04:43.826Z,95
2022-10-11T00:05:31.415Z,95
2022-10-11T00:06:27.604Z,95
2022-10-11T00:07:21.986Z,95
2022-10-11T00:08:56.694Z,95
2022-10-11T00:09:35.624Z,95
2022-10-11T00:10:30.311Z,95
2022-10-11T00:11:21.766Z,95
2022-10-11T00:12:29.988Z,95
2022-10-11T00:13:32.791Z,95
2022-10-11T00:14:23.656Z,96
2022-10-11T00:15:22.693Z,96
2022-10-11T00:16:31.500Z,96
2022-10-11T00:17:26.715Z,96
2022-10-11T00:18:39.099Z,96
2022-10-11T00:19:35.042Z,96
2022-10-11T00:20:29.873Z,96
2022-10-11T00:21:21.305Z,96
2022-10-11T00:22:26.796Z,96
2022-10-11T00:23:21.414Z,95
2022-10-11T00:24:27.943Z,95
2022-10-11T00:25:24.528Z,95
2022-10-11T00:26:34.142Z,95
2022-10-11T00:27:28.133Z,95
2022-10-11T00:28:23.379Z,95
2022-10-11T00:29:22.304Z,95
2022-10-11T00:30:23.653Z,95
2022-10-11T00:31:24.135Z,95
2022-10-11T00:32:23.440Z,95
2022-10-11T00:33:37.111Z,95
2022-10-11T00:34:25.851Z,95
2022-10-11T00:35:39.530Z,95
2022-10-11T00:36:21.521Z,95
2022-10-11T00:37:57.262Z,95
2022-10-11T00:38:23.845Z,95
2022-10-11T00:39:29.619Z,95
2022-10-11T00:40:31.264Z,95
2022-10-11T00:41:28.087Z,95
2022-10-11T00:42:40.392Z,95
2022-10-11T00:43:24.831Z,95
2022-10-11T00:44:23.086Z,95
2022-10-11T00:45:25.586Z,95
2022-10-11T00:46:19.727Z,96
2022-10-11T00:47:38.150Z,96
2022-10-11T00:48:31.026Z,96
2022-10-11T00:49:43.447Z,96
2022-10-11T00:50:27.181Z,96
2022-10-11T00:51:28.148Z,96
2022-10-11T00:52:22.738Z,96
2022-10-11T00:53:35.805Z,96
2022-10-11T00:54:23.907Z,96
2022-10-11T00:55:26.179Z,96
2022-10-11T00:56:21.814Z,96
2022-10-11T00:57:28.946Z,96
2022-10-11T00:58:32.302Z,96
2022-10-11T00:59:24.525Z,95
2022-10-11T01:00:32.366Z,95
2022-10-11T01:01:28.854Z,95
2022-10-11T01:02:26.866Z,95
2022-10-11T01:03:25.746Z,95
2022-10-11T01:05:17.904Z,95
2022-10-11T01:05:46.101Z,95
2022-10-11T02:20:28.152Z,96
2022-10-11T02:21:40.983Z,96
2022-10-11T02:22:32.698Z,96
2022-10-11T02:23:38.738Z,96
2022-10-11T02:24:26.607Z,96
2022-10-11T02:26:34.108Z,96
2022-10-11T02:26:41.776Z,96
2022-10-11T02:27:28.389Z,96
2022-10-11T03:37:29.577Z,96
2022-10-11T03:38:28.712Z,96
2022-10-11T03:39:31.748Z,96
2022-10-11T03:40:27.935Z,97
2022-10-11T03:41:23.437Z,97
2022-10-11T03:42:33.847Z,97
2022-10-11T03:43:26.220Z,97
2022-10-11T03:44:24.536Z,97
2022-10-11T03:45:29.005Z,97
2022-10-11T03:46:25.142Z,97
2022-10-11T03:47:29.114Z,97
2022-10-11T03:48:20.326Z,97
2022-10-11T03:49:23.073Z,97
2022-10-11T03:50:28.197Z,96
2022-10-11T03:51:25.886Z,96
2022-10-11T03:52:39.758Z,96
2022-10-11T03:53:34.186Z,96
2022-10-11T03:54:26.974Z,96
2022-10-11T03:55:20.152Z,96
2022-10-11T03:56:30.043Z,96
2022-10-11T03:57:26.020Z,96
2022-10-11T03:58:26.989Z,96
2022-10-11T03:59:41.162Z,96
2022-10-11T04:00:29.525Z,96
2022-10-11T04:01:27.567Z,96
2022-10-11T04:02:20.859Z,96
2022-10-11T04:03:22.830Z,96
2022-10-11T04:04:25.961Z,96
2022-10-11T04:05:22.095Z,96
2022-10-11T04:06:28.985Z,96
2022-10-11T04:07:30.076Z,96
2022-10-11T04:08:29.189Z,96
2022-10-11T04:09:33.445Z,96
2022-10-11T04:10:27.212Z,96
2022-10-11T04:11:30.744Z,96
2022-10-11T04:12:22.235Z,96
2022-10-11T04:13:34.261Z,96
2022-10-11T04:14:29.680Z,96
2022-10-11T04:15:26.030Z,96
2022-10-11T04:16:21.549Z,96
2022-10-11T04:17:21.495Z,96
2022-10-11T04:18:25.992Z,96
2022-10-11T04:19:22.103Z,96
2022-10-11T04:20:25.415Z,96
2022-10-11T04:21:30.473Z,96
2022-10-11T04:22:26.279Z,96
2022-10-11T04:23:26.243Z,96
2022-10-11T04:24:20.460Z,96
2022-10-11T04:25:28.026Z,96
2022-10-11T04:26:26.837Z,96
2022-10-11T04:27:24.881Z,96
2022-10-11T04:28:30.622Z,96
2022-10-11T04:29:28.880Z,96
2022-10-11T04:30:40.259Z,96
2022-10-11T04:31:21.700Z,96
2022-10-11T04:32:26.347Z,96
2022-10-11T04:33:23.481Z,96
2022-10-11T04:34:23.305Z,96
2022-10-11T04:35:31.708Z,96
2022-10-11T04:36:27.849Z,96
2022-10-11T04:37:24.587Z,96
2022-10-11T04:38:24.002Z,96
2022-10-11T04:39:27.495Z,96
2022-10-11T04:40:30.377Z,96
2022-10-11T04:41:20.951Z,96
2022-10-11T04:42:28.171Z,96
2022-10-11T04:43:24.639Z,96
2022-10-11T04:44:22.397Z,96
2022-10-11T04:45:22.302Z,96
2022-10-11T04:46:28.586Z,96
2022-10-11T04:47:24.909Z,96
2022-10-11T04:48:24.864Z,96
2022-10-11T04:49:20.918Z,96
2022-10-11T04:50:24.244Z,96
2022-10-11T04:51:24.766Z,96
2022-10-11T04:52:30.153Z,96
2022-10-11T04:53:29.090Z,96
2022-10-11T04:54:54.472Z,96
2022-10-11T04:55:30.131Z,96
2022-10-11T04:56:23.873Z,96
2022-10-11T04:57:24.265Z,96
2022-10-11T04:58:35.720Z,96
2022-10-11T04:59:31.439Z,96
2022-10-11T05:00:26.119Z,96
2022-10-11T05:01:22.314Z,96
2022-10-11T05:02:26.489Z,96
2022-10-11T05:03:28.020Z,96
2022-10-11T05:04:24.231Z,96
2022-10-11T05:05:20.296Z,96
2022-10-11T05:06:33.599Z,96
2022-10-11T05:07:24.246Z,96
2022-10-11T05:08:28.501Z,96
2022-10-11T05:09:27.926Z,96
2022-10-11T05:10:30.758Z,96
2022-10-11T05:11:25.766Z,97
2022-10-11T05:12:21.509Z,96
2022-10-11T05:13:31.554Z,97
2022-10-11T05:14:27.678Z,96
2022-10-11T05:15:22.153Z,97
2022-10-11T05:16:28.194Z,97
2022-10-11T05:17:23.112Z,97
2022-10-11T05:18:19.894Z,97
2022-10-11T05:19:20.715Z,97
2022-10-11T05:20:30.677Z,97
2022-10-11T05:21:31.332Z,97
2022-10-11T05:22:23.720Z,97
2022-10-11T05:23:37.958Z,97
2022-10-11T05:24:27.502Z,97
2022-10-11T05:25:26.088Z,97
2022-10-11T05:26:21.927Z,97
2022-10-11T05:27:33.468Z,96
2022-10-11T05:28:25.954Z,96
2022-10-11T05:29:24.139Z,96
2022-10-11T05:30:26.370Z,96
2022-10-11T05:31:29.652Z,96
2022-10-11T05:32:29.046Z,96
2022-10-11T05:33:25.663Z,96
2022-10-11T05:34:25.082Z,96
2022-10-11T05:35:28.924Z,96
2022-10-11T05:36:25.681Z,96
2022-10-11T05:37:33.725Z,96
2022-10-11T05:38:28.386Z,96
2022-10-11T05:39:29.515Z,96
2022-10-11T05:40:20.261Z,96
2022-10-11T05:41:26.339Z,96
2022-10-11T05:42:30.993Z,96
2022-10-11T05:43:25.236Z,96
2022-10-11T05:44:34.311Z,96
2022-10-11T05:45:28.275Z,96
2022-10-11T05:46:26.392Z,96
2022-10-11T05:47:25.362Z,96
2022-10-11T05:48:39.172Z,96
2022-10-11T05:49:24.824Z,96
2022-10-11T05:50:27.564Z,96
2022-10-11T05:52:04.459Z,96
2022-10-11T05:52:30.356Z,96
2022-10-11T05:53:27.120Z,96
2022-10-11T05:54:23.313Z,96
2022-10-11T05:55:32.668Z,96
2022-10-11T05:56:27.305Z,96
2022-10-11T05:57:24.588Z,96
2022-10-11T05:58:22.612Z,96
2022-10-11T05:59:30.885Z,96
2022-10-11T06:00:28.735Z,96
2022-10-11T06:01:22.809Z,96
2022-10-11T06:02:25.470Z,96
2022-10-11T06:03:26.196Z,96
2022-10-11T06:04:28.542Z,96
2022-10-11T06:05:22.611Z,96
2022-10-11T06:06:32.364Z,96
2022-10-11T06:07:26.838Z,96
2022-10-11T06:08:22.600Z,96
2022-10-11T06:09:32.125Z,95
2022-10-11T06:10:22.255Z,94
2022-10-11T06:11:25.531Z,94
2022-10-11T06:12:23.062Z,94
2022-10-11T06:13:29.076Z,94
2022-10-11T06:14:24.079Z,93
2022-10-11T06:15:23.984Z,94
2022-10-11T06:16:32.113Z,93
2022-10-11T06:17:28.409Z,93
2022-10-11T06:18:22.465Z,93
2022-10-11T06:19:34.190Z,93
2022-10-11T06:20:28.079Z,93
2022-10-11T06:21:24.158Z,94
2022-10-11T06:22:22.358Z,95
2022-10-11T06:23:20.880Z,94
2022-10-11T06:24:30.753Z,93
2022-10-11T06:25:26.102Z,94
2022-10-11T06:26:34.759Z,94
2022-10-11T06:27:24.754Z,95
2022-10-11T06:28:26.333Z,95
2022-10-11T06:29:20.093Z,95
2022-10-11T06:30:34.139Z,94
2022-10-11T06:31:27.640Z,95
2022-10-11T06:32:25.183Z,94
2022-10-11T06:33:33.882Z,94
2022-10-11T06:34:30.197Z,95
2022-10-11T06:35:21.968Z,95
2022-10-11T06:36:20.152Z,95
2022-10-11T06:37:26.972Z,95
2022-10-11T06:38:32.716Z,95
2022-10-11T06:39:26.551Z,94
2022-10-11T06:40:25.575Z,95
2022-10-11T06:41:21.641Z,95
2022-10-11T06:42:40.010Z,95
2022-10-11T06:43:23.102Z,94
2022-10-11T06:44:31.970Z,95
2022-10-11T06:45:34.690Z,95
2022-10-11T06:46:24.140Z,94
2022-10-11T06:47:28.791Z,94
2022-10-11T06:48:25.073Z,94
2022-10-11T06:49:32.952Z,94
2022-10-11T06:50:35.101Z,94
2022-10-11T06:51:35.208Z,94
2022-10-11T06:52:20.034Z,94
2022-10-11T06:53:22.931Z,95
2022-10-11T06:54:56.147Z,93
2022-10-11T06:55:25.669Z,93
2022-10-11T06:56:24.319Z,93
2022-10-11T06:57:20.591Z,93
2022-10-11T06:58:30.242Z,93
2022-10-11T06:59:22.550Z,93
2022-10-11T07:00:25.399Z,94
2022-10-11T07:01:37.332Z,93
2022-10-11T07:02:32.946Z,94
2022-10-11T07:03:24.314Z,93
2022-10-11T07:04:20.460Z,93
2022-10-11T07:05:24.988Z,93
2022-10-11T07:06:27.915Z,92
2022-10-11T07:07:22.472Z,93
2022-10-11T07:08:32.492Z,93
2022-10-11T07:09:42.380Z,93
2022-10-11T07:10:25.516Z,93
2022-10-11T07:11:45.548Z,93
2022-10-11T07:12:32.347Z,94
2022-10-11T07:13:22.419Z,94
2022-10-11T07:14:24.296Z,95
2022-10-11T07:15:34.112Z,94
2022-10-11T07:16:30.231Z,93
2022-10-11T07:17:31.377Z,94
2022-10-11T07:18:25.271Z,92
2022-10-11T07:19:35.093Z,92
2022-10-11T07:20:26.149Z,92
2022-10-11T07:21:23.281Z,94
2022-10-11T07:22:34.020Z,94
2022-10-11T07:23:30.102Z,94
2022-10-11T07:24:33.027Z,94
2022-10-11T07:25:25.268Z,92
2022-10-11T07:26:38.532Z,93
2022-10-11T07:27:31.616Z,93
2022-10-11T07:28:24.904Z,93
2022-10-11T07:29:37.500Z,92
2022-10-11T07:30:30.021Z,92
2022-10-11T07:31:32.669Z,93
2022-10-11T07:32:20.294Z,94
2022-10-11T07:33:22.120Z,94
2022-10-11T07:34:29.241Z,92
2022-10-11T07:35:25.238Z,92
2022-10-11T07:36:32.470Z,91
2022-10-11T07:37:32.277Z,90
2022-10-11T07:38:27.432Z,92
2022-10-11T07:39:21.815Z,93
2022-10-11T07:40:28.596Z,91
2022-10-11T07:41:26.504Z,91
2022-10-11T07:42:24.624Z,92
2022-10-11T07:43:25.649Z,91
2022-10-11T07:44:28.602Z,92
2022-10-11T07:45:28.425Z,92
2022-10-11T07:46:24.708Z,91
2022-10-11T07:47:31.186Z,91
2022-10-11T07:48:24.004Z,91
2022-10-11T07:49:27.686Z,90
2022-10-11T07:50:26.566Z,91
2022-10-11T07:51:21.423Z,91
2022-10-11T07:52:26.061Z,91
2022-10-11T07:53:22.512Z,91
2022-10-11T07:54:33.858Z,90
2022-10-11T07:55:34.704Z,90
2022-10-11T07:56:22.501Z,91
2022-10-11T07:57:30.943Z,91
2022-10-11T07:58:24.436Z,90
2022-10-11T07:59:27.071Z,91
2022-10-11T08:00:20.864Z,90
2022-10-11T08:01:30.682Z,89
2022-10-11T08:02:26.456Z,89
2022-10-11T08:03:25.100Z,90
2022-10-11T08:04:37.079Z,89
2022-10-11T08:05:30.234Z,90
2022-10-11T08:06:22.119Z,90
2022-10-11T08:07:20.578Z,90
2022-10-11T08:08:33.859Z,90
2022-10-11T08:09:28.360Z,91
2022-10-11T08:10:26.214Z,92
2022-10-11T08:11:22.575Z,91
2022-10-11T08:12:30.054Z,90
2022-10-11T08:13:24.875Z,91
2022-10-11T08:14:24.964Z,90
2022-10-11T08:15:24.579Z,89
2022-10-11T08:16:26.388Z,89
2022-10-11T08:17:24.251Z,91
2022-10-11T08:18:25.437Z,91
2022-10-11T08:19:28.153Z,90
2022-10-11T08:20:24.129Z,90
2022-10-11T08:21:24.493Z,91
2022-10-11T08:22:28.921Z,91
2022-10-11T08:23:27.307Z,90
2022-10-11T08:24:24.825Z,89
2022-10-11T08:25:32.002Z,90
2022-10-11T08:26:24.099Z,91
2022-10-11T08:27:32.735Z,91
2022-10-11T08:28:22.021Z,90
2022-10-11T08:29:30.008Z,89
2022-10-11T08:30:28.063Z,89
2022-10-11T08:31:23.334Z,89
2022-10-11T08:32:37.402Z,89
2022-10-11T08:33:22.922Z,89
2022-10-11T08:34:24.821Z,88
2022-10-11T08:35:20.876Z,89
2022-10-11T08:36:26.168Z,89
2022-10-11T08:37:27.017Z,88
2022-10-11T08:38:25.222Z,88
2022-10-11T08:39:34.458Z,88
2022-10-11T08:40:35.437Z,88
2022-10-11T08:41:25.496Z,88
2022-10-11T08:42:22.769Z,89
2022-10-11T08:43:30.596Z,89
2022-10-11T08:44:46.192Z,88
2022-10-11T08:45:27.714Z,88
2022-10-11T08:46:36.434Z,88
2022-10-11T08:47:31.857Z,88
2022-10-11T08:48:28.896Z,87
2022-10-11T08:49:20.248Z,87
2022-10-11T08:50:32.206Z,88
2022-10-11T08:51:30.244Z,88
2022-10-11T08:52:26.390Z,87
2022-10-11T08:53:36.302Z,87
2022-10-11T08:54:34.691Z,88
2022-10-11T08:55:27.230Z,88
2022-10-11T08:56:20.120Z,88
2022-10-11T08:57:30.341Z,88
2022-10-11T08:58:29.112Z,89
2022-10-11T08:59:22.618Z,87
2022-10-11T09:00:38.791Z,87
2022-10-11T09:01:30.842Z,88
2022-10-11T09:02:49.216Z,87
2022-10-11T09:03:24.098Z,87
2022-10-11T09:04:24.857Z,87
2022-10-11T09:05:26.461Z,87
2022-10-11T09:06:22.587Z,87
2022-10-11T09:07:34.168Z,87
2022-10-11T09:08:28.267Z,87
2022-10-11T09:09:29.219Z,87
2022-10-11T09:10:24.975Z,86
2022-10-11T09:11:27.923Z,86
2022-10-11T09:12:32.399Z,86
2022-10-11T09:13:24.725Z,86
2022-10-11T09:14:23.821Z,86
2022-10-11T09:15:30.498Z,86
2022-10-11T09:16:28.181Z,86
2022-10-11T09:17:24.419Z,86
2022-10-11T09:18:34.652Z,86
2022-10-11T09:19:28.892Z,86
2022-10-11T09:20:22.980Z,86
2022-10-11T09:21:27.419Z,86
2022-10-11T09:22:30.241Z,86
2022-10-11T09:23:24.525Z,85
2022-10-11T09:24:35.996Z,85
2022-10-11T09:25:39.876Z,85
2022-10-11T09:26:22.675Z,85
2022-10-11T09:27:49.904Z,85
2022-10-11T09:28:35.719Z,85
2022-10-11T09:29:24.543Z,85
2022-10-11T09:30:24.323Z,85
2022-10-11T09:31:22.765Z,85
2022-10-11T09:32:35.090Z,85
2022-10-11T09:33:32.195Z,84
2022-10-11T09:34:25.499Z,84
2022-10-11T09:35:34.468Z,84
2022-10-11T09:36:28.729Z,84
2022-10-11T09:37:27.965Z,84
2022-10-11T09:38:22.328Z,84
2022-10-11T09:39:38.105Z,84
2022-10-11T09:40:26.304Z,84
2022-10-11T09:41:29.420Z,84
2022-10-11T09:42:22.002Z,84
2022-10-11T09:43:27.780Z,84
2022-10-11T09:44:30.363Z,84
2022-10-11T09:45:20.320Z,84
2022-10-11T09:46:31.687Z,84
2022-10-11T09:47:26.117Z,84
2022-10-11T09:48:22.505Z,83
2022-10-11T09:49:25.635Z,84
2022-10-11T09:50:31.148Z,83
2022-10-11T09:51:28.017Z,84
2022-10-11T09:52:24.783Z,83
2022-10-11T09:53:32.048Z,83
2022-10-11T09:54:21.830Z,83
2022-10-11T09:55:25.849Z,82
2022-10-11T09:56:51.134Z,83
2022-10-11T09:57:25.483Z,82
2022-10-11T09:58:24.062Z,82
2022-10-11T09:59:21.992Z,82
2022-10-11T10:00:20.000Z,82
2022-10-11T10:01:28.280Z,81
2022-10-11T10:02:24.673Z,82
2022-10-11T10:03:27.673Z,81
2022-10-11T10:04:27.062Z,81
2022-10-11T10:05:24.608Z,81
2022-10-11T10:06:20.595Z,82
2022-10-11T10:07:25.076Z,81
2022-10-11T10:08:26.517Z,81
2022-10-11T10:09:22.786Z,81
2022-10-11T10:10:32.368Z,81
2022-10-11T10:11:25.827Z,80
2022-10-11T10:12:24.533Z,80
2022-10-11T10:13:20.589Z,80
2022-10-11T10:14:33.440Z,80
2022-10-11T10:15:21.101Z,80
2022-10-11T10:16:22.654Z,80
2022-10-11T10:17:31.222Z,80
2022-10-11T10:18:21.107Z,80
2022-10-11T10:19:25.980Z,80
2022-10-11T10:20:25.124Z,80
2022-10-11T10:21:35.810Z,79
2022-10-11T10:22:25.475Z,79
2022-10-11T10:23:22.542Z,79
2022-10-11T10:24:34.245Z,79
2022-10-11T10:25:26.103Z,79
2022-10-11T10:26:24.495Z,79
2022-10-11T10:27:29.612Z,79
2022-10-11T10:28:25.603Z,79
2022-10-11T10:29:28.650Z,79
2022-10-11T10:30:22.955Z,78
2022-10-11T10:31:44.400Z,78
2022-10-11T10:32:30.270Z,78
2022-10-11T10:33:28.546Z,78
2022-10-11T10:34:21.058Z,78
2022-10-11T10:35:20.370Z,77
2022-10-11T10:36:22.401Z,78
2022-10-11T10:37:25.810Z,78
2022-10-11T10:38:26.361Z,78
2022-10-11T10:39:22.542Z,77
2022-10-11T10:40:26.605Z,77
2022-10-11T10:41:20.421Z,77
2022-10-11T10:42:32.135Z,77
2022-10-11T10:43:27.967Z,76
2022-10-11T10:44:22.338Z,77
2022-10-11T10:45:26.547Z,77
2022-10-11T10:46:30.530Z,77
2022-10-11T10:47:21.853Z,76
2022-10-11T10:48:20.384Z,76
2022-10-11T10:50:06.360Z,76
2022-10-11T10:50:23.190Z,76
2022-10-11T10:51:22.730Z,76
2022-10-11T10:52:32.153Z,76
2022-10-11T10:53:22.593Z,75
2022-10-11T10:54:25.687Z,75
2022-10-11T10:55:20.365Z,75
2022-10-11T10:56:26.860Z,76
2022-10-11T10:57:28.907Z,75
2022-10-11T10:58:22.915Z,75
2022-10-11T10:59:50.897Z,74
2022-10-11T11:00:27.426Z,75
2022-10-11T11:01:25.753Z,75
2022-10-11T11:02:39.506Z,74
2022-10-11T11:03:30.529Z,74
2022-10-11T11:04:41.346Z,74
2022-10-11T11:05:22.238Z,74
2022-10-11T11:06:35.747Z,74
2022-10-11T11:07:21.758Z,74
2022-10-11T11:08:24.789Z,74
2022-10-11T11:09:20.465Z,73
2022-10-11T11:10:34.448Z,73
2022-10-11T11:11:28.172Z,73
2022-10-11T11:12:26.426Z,73
2022-10-11T11:13:34.308Z,72
2022-10-11T11:14:28.482Z,73
2022-10-11T11:15:32.527Z,72
2022-10-11T11:16:21.478Z,72
2022-10-11T11:17:31.487Z,71
2022-10-11T11:18:56.727Z,72
2022-10-11T11:19:34.800Z,72
2022-10-11T11:20:22.965Z,72
2022-10-11T11:21:29.648Z,72
2022-10-11T11:22:26.287Z,71
2022-10-11T11:23:26.089Z,71
2022-10-11T11:24:23.510Z,71
2022-10-11T11:25:28.245Z,70
2022-10-11T11:26:24.375Z,69
2022-10-11T11:27:29.094Z,69
2022-10-11T11:28:23.261Z,69
2022-10-11T11:29:24.722Z,68
2022-10-11T11:30:22.844Z,69
2022-10-11T11:31:20.976Z,68
2022-10-11T11:32:26.793Z,69
2022-10-11T11:33:39.295Z,68
2022-10-11T11:34:23.800Z,68
2022-10-11T11:35:22.253Z,68
2022-10-11T11:36:24.408Z,68
2022-10-11T11:37:23.345Z,67
2022-10-11T11:38:29.587Z,67
2022-10-11T11:39:26.367Z,67
2022-10-11T11:40:22.661Z,66
2022-10-11T11:41:26.627Z,66
2022-10-11T11:42:29.703Z,66
2022-10-11T11:43:21.222Z,66
2022-10-11T11:44:26.412Z,65
2022-10-11T11:45:31.100Z,65
2022-10-11T11:46:22.332Z,64
2022-10-11T11:47:22.499Z,65
2022-10-11T11:48:25.905Z,64
2022-10-11T11:49:32.751Z,65
2022-10-11T11:50:25.920Z,64
2022-10-11T11:51:20.517Z,64
2022-10-11T11:52:22.257Z,64
2022-10-11T11:53:37.299Z,64
2022-10-11T11:54:24.327Z,63
2022-10-11T11:55:31.768Z,63
2022-10-11T11:56:38.186Z,63
2022-10-11T11:57:47.761Z,63
2022-10-11T11:58:22.016Z,61
2022-10-11T11:59:26.307Z,62
2022-10-11T12:00:26.457Z,61
2022-10-11T12:01:31.361Z,63
2022-10-11T12:02:33.624Z,63
2022-10-11T12:03:28.848Z,63
2022-10-11T12:04:25.764Z,62
2022-10-11T12:05:25.819Z,62
2022-10-11T12:06:30.558Z,62
2022-10-11T12:07:29.550Z,62
2022-10-11T12:08:24.697Z,63
2022-10-11T12:09:22.651Z,62
2022-10-11T12:10:21.873Z,61
2022-10-11T12:11:26.336Z,61
2022-10-11T12:12:20.271Z,60
2022-10-11T12:13:32.469Z,61
2022-10-11T12:14:26.721Z,61
2022-10-11T12:15:22.422Z,61
2022-10-11T12:16:26.693Z,60
2022-10-11T12:17:25.045Z,61
2022-10-11T12:18:26.709Z,61
2022-10-11T12:19:20.320Z,61
2022-10-11T12:20:23.627Z,61
2022-10-11T12:21:27.727Z,61
2022-10-11T12:22:22.656Z,61
2022-10-11T12:23:28.774Z,60
2022-10-11T12:24:22.155Z,60
2022-10-11T12:25:24.666Z,60
2022-10-11T12:26:22.120Z,61
2022-10-11T12:27:30.817Z,61
2022-10-11T12:28:26.585Z,60
2022-10-11T12:29:28.185Z,61
2022-10-11T12:30:34.349Z,61
2022-10-11T12:31:31.047Z,60
2022-10-11T12:32:24.639Z,60
2022-10-11T12:33:22.583Z,60
2022-10-11T12:34:35.247Z,58
2022-10-11T12:35:31.371Z,59
2022-10-11T12:36:23.683Z,59
2022-10-11T12:37:23.414Z,59
2022-10-11T12:38:30.571Z,59
2022-10-11T12:39:28.050Z,59
2022-10-11T12:40:22.642Z,57
2022-10-11T12:41:43.970Z,59
2022-10-11T12:42:34.484Z,59
2022-10-11T12:43:25.039Z,57
2022-10-11T12:44:34.284Z,57
2022-10-11T12:45:28.337Z,58
2022-10-11T12:46:26.360Z,57
2022-10-11T12:47:37.346Z,57
2022-10-11T12:48:23.340Z,56
2022-10-11T12:49:31.558Z,57
2022-10-11T12:50:22.482Z,57
2022-10-11T12:51:26.621Z,57
2022-10-11T12:52:32.587Z,57
2022-10-11T12:53:27.005Z,57
2022-10-11T12:54:30.977Z,57
2022-10-11T12:55:33.402Z,56
2022-10-11T12:56:53.773Z,55
2022-10-11T12:57:25.704Z,54
2022-10-11T12:58:27.944Z,55
2022-10-11T12:59:28.299Z,56
2022-10-11T13:00:27.518Z,57
2022-10-11T13:01:22.851Z,56
2022-10-11T13:02:22.188Z,56
2022-10-11T13:03:32.736Z,55
2022-10-11T13:04:26.579Z,54
2022-10-11T13:05:28.088Z,55
2022-10-11T13:06:25.452Z,55
2022-10-11T13:07:29.088Z,55
2022-10-11T13:08:24.346Z,54
2022-10-11T13:09:27.056Z,55
2022-10-11T13:10:26.274Z,55
2022-10-11T13:11:22.323Z,54
2022-10-11T13:12:41.416Z,55
2022-10-11T13:13:28.866Z,54
2022-10-11T13:14:21.969Z,55
2022-10-11T13:15:23.179Z,55
2022-10-11T13:16:32.563Z,54
2022-10-11T13:17:24.739Z,54
2022-10-11T13:18:24.529Z,54
2022-10-11T13:19:34.914Z,54
2022-10-11T13:20:38.986Z,53
2022-10-11T13:21:27.249Z,55
2022-10-11T13:22:22.045Z,53
2022-10-11T13:23:30.870Z,53
2022-10-11T13:24:27.225Z,53
2022-10-11T13:25:24.445Z,53
2022-10-11T13:26:22.333Z,53
2022-10-11T13:27:28.520Z,53
2022-10-11T13:28:26.036Z,53
2022-10-11T13:29:22.679Z,53
2022-10-11T13:30:30.444Z,52
2022-10-11T13:31:28.457Z,52
2022-10-11T13:32:25.991Z,52
2022-10-11T13:33:24.101Z,52
2022-10-11T13:34:35.046Z,52
2022-10-11T13:35:29.905Z,52
2022-10-11T13:36:20.062Z,53
2022-10-11T13:37:32.719Z,52
2022-10-11T13:38:35.579Z,52
2022-10-11T13:39:31.111Z,52
2022-10-11T13:40:21.475Z,52
2022-10-11T13:41:28.567Z,53
2022-10-11T13:42:25.711Z,52
2022-10-11T13:43:22.996Z,53
2022-10-11T13:44:23.313Z,53
2022-10-11T13:45:30.714Z,52
2022-10-11T13:46:22.624Z,51
2022-10-11T13:47:27.573Z,52
2022-10-11T13:48:32.109Z,52
2022-10-11T13:49:24.473Z,52
2022-10-11T13:50:26.483Z,52
2022-10-11T13:51:30.784Z,51
2022-10-11T13:52:30.467Z,51
2022-10-11T13:53:27.251Z,52
2022-10-11T13:54:34.922Z,51
2022-10-11T13:55:29.233Z,50
2022-10-11T13:56:24.464Z,50
2022-10-11T13:57:24.342Z,50
2022-10-11T13:58:30.388Z,51
2022-10-11T13:59:23.434Z,51
2022-10-11T14:00:26.409Z,50
2022-10-11T14:01:26.566Z,50
2022-10-11T14:02:25.355Z,50
2022-10-11T14:03:21.896Z,51
2022-10-11T14:04:25.074Z,50
2022-10-11T14:05:30.865Z,51
2022-10-11T14:06:26.931Z,51
2022-10-11T14:07:27.033Z,51
2022-10-11T14:08:40.078Z,51
2022-10-11T14:09:34.982Z,49
2022-10-11T14:10:28.431Z,50
2022-10-11T14:11:23.833Z,50
2022-10-11T14:12:34.710Z,50
2022-10-11T14:13:23.328Z,50
2022-10-11T14:14:25.720Z,50
2022-10-11T14:15:35.804Z,49
2022-10-11T14:16:35.392Z,49
2022-10-11T14:17:27.368Z,49
2022-10-11T14:18:26.901Z,50
2022-10-11T14:19:33.206Z,50
2022-10-11T14:20:30.794Z,50
2022-10-11T14:21:25.768Z,49
2022-10-11T14:22:22.725Z,50
2022-10-11T14:23:31.306Z,50
2022-10-11T14:24:24.382Z,50
2022-10-11T14:25:24.375Z,50
2022-10-11T14:26:36.022Z,49
2022-10-11T14:27:28.077Z,50
2022-10-11T14:28:24.836Z,49
2022-10-11T14:29:29.269Z,49
2022-10-11T14:30:28.815Z,48
2022-10-11T14:31:26.446Z,49
2022-10-11T14:32:21.540Z,49
2022-10-11T14:33:30.075Z,51
2022-10-11T14:34:26.706Z,50
2022-10-11T14:35:27.867Z,50
2022-10-11T14:36:32.680Z,50
2022-10-11T14:37:21.969Z,50
2022-10-11T14:38:26.917Z,50
2022-10-11T14:39:20.391Z,50
2022-10-11T14:40:31.806Z,50
2022-10-11T14:41:21.498Z,50
2022-10-11T14:42:30.300Z,50
2022-10-11T14:43:32.903Z,50
2022-10-11T14:44:29.807Z,50
2022-10-11T14:45:26.642Z,50
2022-10-11T14:46:23.898Z,50
2022-10-11T14:47:34.291Z,50
2022-10-11T14:48:50.149Z,50
2022-10-11T14:49:24.330Z,50
2022-10-11T14:50:37.039Z,49
2022-10-11T14:51:32.604Z,50
2022-10-11T14:52:27.564Z,50
2022-10-11T14:53:20.900Z,50
2022-10-11T14:54:32.382Z,50
2022-10-11T14:55:32.703Z,50
2022-10-11T14:56:22.513Z,51
2022-10-11T14:57:32.218Z,51
2022-10-11T14:58:40.200Z,51
2022-10-11T14:59:27.335Z,51
2022-10-11T15:00:22.635Z,51
2022-10-11T15:01:30.436Z,51
2022-10-11T15:02:26.621Z,52
2022-10-11T15:03:27.506Z,52
2022-10-11T15:04:38.095Z,51
2022-10-11T15:05:34.178Z,51
2022-10-11T15:06:25.790Z,50
2022-10-11T15:07:20.761Z,51
2022-10-11T15:08:30.429Z,51
2022-10-11T15:09:29.250Z,50
2022-10-11T15:10:22.785Z,50
2022-10-11T15:11:23.771Z,51
2022-10-11T15:12:33.118Z,51
2022-10-11T15:13:28.038Z,51
2022-10-11T15:14:23.276Z,51
2022-10-11T15:15:23.506Z,50
2022-10-11T15:16:28.925Z,51
2022-10-11T15:17:25.987Z,51
2022-10-11T15:18:22.070Z,51
2022-10-11T15:19:28.265Z,52
2022-10-11T15:20:24.933Z,52
2022-10-11T15:21:22.187Z,53
2022-10-11T15:22:25.054Z,54
2022-10-11T15:23:26.378Z,54
2022-10-11T15:24:23.602Z,54
2022-10-11T15:25:24.850Z,54
2022-10-11T15:26:24.753Z,54
2022-10-11T15:27:26.788Z,54
2022-10-11T15:28:20.493Z,54
2022-10-11T15:29:26.441Z,54
2022-10-11T15:30:22.124Z,55
2022-10-11T15:31:26.166Z,54
2022-10-11T15:32:31.702Z,55
2022-10-11T15:33:29.367Z,55
2022-10-11T15:34:22.488Z,55
2022-10-11T15:35:20.358Z,56
2022-10-11T15:36:25.522Z,56
2022-10-11T15:37:45.041Z,56
2022-10-11T15:38:22.596Z,56
2022-10-11T15:39:36.903Z,56
2022-10-11T15:40:28.762Z,56
2022-10-11T15:41:24.747Z,57
2022-10-11T15:42:22.218Z,58
2022-10-11T15:43:25.996Z,57
2022-10-11T15:44:26.845Z,57
2022-10-11T15:45:24.557Z,58
2022-10-11T15:46:39.831Z,58
2022-10-11T15:47:24.081Z,58
2022-10-11T15:48:26.604Z,58
2022-10-11T15:49:24.560Z,58
2022-10-11T15:50:32.440Z,58
2022-10-11T15:51:36.073Z,59
2022-10-11T15:52:22.726Z,60
2022-10-11T15:53:22.490Z,60
2022-10-11T15:54:25.975Z,61
2022-10-11T15:55:28.043Z,61
2022-10-11T15:56:20.913Z,62
2022-10-11T15:57:32.104Z,62
2022-10-11T15:58:29.069Z,63
2022-10-11T15:59:25.078Z,62
2022-10-11T16:00:24.342Z,63
2022-10-11T16:01:31.710Z,64
2022-10-11T16:02:25.992Z,63
2022-10-11T16:03:20.838Z,63
2022-10-11T16:04:23.379Z,64
2022-10-11T16:05:24.355Z,64
2022-10-11T16:06:22.658Z,64
2022-10-11T16:07:42.846Z,63
2022-10-11T16:08:28.174Z,64
2022-10-11T16:09:27.675Z,64
2022-10-11T16:10:24.713Z,64
2022-10-11T16:11:28.473Z,64
2022-10-11T16:12:20.729Z,64
2022-10-11T16:13:22.595Z,64
2022-10-11T16:14:33.744Z,65
2022-10-11T16:15:33.502Z,64
2022-10-11T16:16:26.753Z,65
2022-10-11T16:17:20.934Z,65
2022-10-11T16:18:37.315Z,66
2022-10-11T16:19:41.918Z,66
2022-10-11T16:20:22.665Z,66
2022-10-11T16:21:34.763Z,68
2022-10-11T16:22:30.269Z,68
2022-10-11T16:23:27.602Z,67
2022-10-11T16:24:20.520Z,67
2022-10-11T16:25:31.582Z,67
2022-10-11T16:26:33.217Z,66
2022-10-11T16:27:22.422Z,66
2022-10-11T16:28:32.914Z,68
2022-10-11T16:29:28.375Z,68
2022-10-11T16:30:24.557Z,67
2022-10-11T16:31:24.573Z,67
2022-10-11T16:32:31.959Z,68
2022-10-11T16:33:32.277Z,68
2022-10-11T16:34:22.570Z,68
2022-10-11T16:35:33.947Z,68
2022-10-11T16:36:30.305Z,67
2022-10-11T16:37:24.465Z,68
2022-10-11T16:38:23.170Z,68